sensor_id;sensor_type;location;lat;lon;timestamp;P1;durP1;ratioP1;P2;durP2;ratioP2
8482;SDS011;4278;42.668;23.312;2022-12-07T00:00:13;38.07;;;21.10;;
8482;SDS011;4278;42.668;23.312;2022-12-07T00:02:41;37.87;;;19.33;;
8482;SDS011;4278;42.668;23.312;2022-12-07T00:05:08;39.20;;;18.93;;
8482;SDS011;4278;42.668;23.312;2022-12-07T00:07:34;37.67;;;18.93;;
8482;SDS011;4278;42.668;23.312;2022-12-07T00:10:01;39.43;;;19.93;;
8482;SDS011;4278;42.668;23.312;2022-12-07T00:12:27;42.93;;;20.33;;
8482;SDS011;4278;42.668;23.312;2022-12-07T00:14:54;45.27;;;21.10;;
8482;SDS011;4278;42.668;23.312;2022-12-07T00:17:20;42.80;;;20.50;;
8482;SDS011;4278;42.668;23.312;2022-12-07T00:19:48;39.70;;;20.87;;
8482;SDS011;4278;42.668;23.312;2022-12-07T00:22:15;44.17;;;21.53;;
8482;SDS011;4278;42.668;23.312;2022-12-07T00:24:41;48.10;;;22.10;;
8482;SDS011;4278;42.668;23.312;2022-12-07T00:27:08;45.10;;;22.23;;
8482;SDS011;4278;42.668;23.312;2022-12-07T00:29:34;38.80;;;20.93;;
8482;SDS011;4278;42.668;23.312;2022-12-07T00:32:02;46.90;;;22.23;;
8482;SDS011;4278;42.668;23.312;2022-12-07T00:34:28;46.13;;;22.27;;
8482;SDS011;4278;42.668;23.312;2022-12-07T00:36:56;43.10;;;20.03;;
8482;SDS011;4278;42.668;23.312;2022-12-07T00:39:23;46.10;;;22.10;;
8482;SDS011;4278;42.668;23.312;2022-12-07T00:41:49;45.60;;;21.83;;
8482;SDS011;4278;42.668;23.312;2022-12-07T00:44:16;43.67;;;21.13;;
8482;SDS011;4278;42.668;23.312;2022-12-07T00:46:42;50.10;;;22.33;;
8482;SDS011;4278;42.668;23.312;2022-12-07T00:49:10;42.43;;;20.57;;
8482;SDS011;4278;42.668;23.312;2022-12-07T00:51:37;45.97;;;23.13;;
8482;SDS011;4278;42.668;23.312;2022-12-07T00:54:05;42.57;;;20.20;;
8482;SDS011;4278;42.668;23.312;2022-12-07T00:56:32;39.70;;;19.40;;
8482;SDS011;4278;42.668;23.312;2022-12-07T00:59:00;42.53;;;19.10;;
8482;SDS011;4278;42.668;23.312;2022-12-07T01:01:28;41.13;;;19.97;;
8482;SDS011;4278;42.668;23.312;2022-12-07T01:03:55;38.47;;;18.03;;
8482;SDS011;4278;42.668;23.312;2022-12-07T01:06:21;35.97;;;17.93;;
8482;SDS011;4278;42.668;23.312;2022-12-07T01:08:49;41.30;;;18.73;;
8482;SDS011;4278;42.668;23.312;2022-12-07T01:11:18;35.47;;;18.43;;
8482;SDS011;4278;42.668;23.312;2022-12-07T01:13:45;37.93;;;18.97;;
8482;SDS011;4278;42.668;23.312;2022-12-07T01:16:13;38.30;;;19.07;;
8482;SDS011;4278;42.668;23.312;2022-12-07T01:18:40;35.17;;;19.90;;
8482;SDS011;4278;42.668;23.312;2022-12-07T01:21:07;41.50;;;19.13;;
8482;SDS011;4278;42.668;23.312;2022-12-07T01:23:34;43.27;;;19.83;;
8482;SDS011;4278;42.668;23.312;2022-12-07T01:26:02;35.67;;;19.30;;
8482;SDS011;4278;42.668;23.312;2022-12-07T01:28:30;37.83;;;18.00;;
8482;SDS011;4278;42.668;23.312;2022-12-07T01:30:57;33.90;;;16.70;;
8482;SDS011;4278;42.668;23.312;2022-12-07T01:33:24;38.27;;;19.00;;
8482;SDS011;4278;42.668;23.312;2022-12-07T01:35:52;41.63;;;18.20;;
8482;SDS011;4278;42.668;23.312;2022-12-07T01:38:18;34.70;;;18.33;;
8482;SDS011;4278;42.668;23.312;2022-12-07T01:40:45;34.40;;;17.63;;
8482;SDS011;4278;42.668;23.312;2022-12-07T01:45:58;36.17;;;16.93;;
8482;SDS011;4278;42.668;23.312;2022-12-07T01:48:26;36.07;;;16.97;;
8482;SDS011;4278;42.668;23.312;2022-12-07T01:50:53;33.53;;;17.10;;
8482;SDS011;4278;42.668;23.312;2022-12-07T01:53:21;34.97;;;17.23;;
8482;SDS011;4278;42.668;23.312;2022-12-07T01:55:49;38.60;;;18.70;;
8482;SDS011;4278;42.668;23.312;2022-12-07T01:58:18;32.57;;;16.93;;
8482;SDS011;4278;42.668;23.312;2022-12-07T02:00:44;39.50;;;18.47;;
8482;SDS011;4278;42.668;23.312;2022-12-07T02:03:13;39.30;;;18.67;;
8482;SDS011;4278;42.668;23.312;2022-12-07T02:05:41;34.23;;;18.20;;
8482;SDS011;4278;42.668;23.312;2022-12-07T02:08:09;41.77;;;18.27;;
8482;SDS011;4278;42.668;23.312;2022-12-07T02:10:36;37.47;;;17.63;;
8482;SDS011;4278;42.668;23.312;2022-12-07T02:13:04;40.60;;;18.50;;
8482;SDS011;4278;42.668;23.312;2022-12-07T02:15:34;46.87;;;19.17;;
8482;SDS011;4278;42.668;23.312;2022-12-07T02:18:05;40.67;;;19.13;;
8482;SDS011;4278;42.668;23.312;2022-12-07T02:20:35;39.13;;;19.73;;
8482;SDS011;4278;42.668;23.312;2022-12-07T02:23:29;35.53;;;18.87;;
8482;SDS011;4278;42.668;23.312;2022-12-07T02:28:49;40.27;;;19.97;;
8482;SDS011;4278;42.668;23.312;2022-12-07T02:31:17;38.43;;;20.70;;
8482;SDS011;4278;42.668;23.312;2022-12-07T02:33:45;43.77;;;19.33;;
8482;SDS011;4278;42.668;23.312;2022-12-07T02:36:16;36.30;;;17.90;;
8482;SDS011;4278;42.668;23.312;2022-12-07T02:38:44;47.27;;;21.23;;
8482;SDS011;4278;42.668;23.312;2022-12-07T02:41:15;46.93;;;22.37;;
8482;SDS011;4278;42.668;23.312;2022-12-07T02:43:43;47.00;;;20.53;;
8482;SDS011;4278;42.668;23.312;2022-12-07T02:46:13;43.20;;;21.13;;
8482;SDS011;4278;42.668;23.312;2022-12-07T02:48:40;44.27;;;20.63;;
8482;SDS011;4278;42.668;23.312;2022-12-07T02:51:07;43.30;;;22.00;;
8482;SDS011;4278;42.668;23.312;2022-12-07T02:53:35;43.07;;;20.97;;
8482;SDS011;4278;42.668;23.312;2022-12-07T02:56:03;48.43;;;21.23;;
8482;SDS011;4278;42.668;23.312;2022-12-07T02:58:33;44.63;;;21.17;;
8482;SDS011;4278;42.668;23.312;2022-12-07T03:01:05;48.67;;;23.13;;
8482;SDS011;4278;42.668;23.312;2022-12-07T03:03:34;46.13;;;22.20;;
8482;SDS011;4278;42.668;23.312;2022-12-07T03:06:06;43.97;;;21.83;;
8482;SDS011;4278;42.668;23.312;2022-12-07T03:08:39;46.67;;;20.73;;
8482;SDS011;4278;42.668;23.312;2022-12-07T03:11:10;43.43;;;21.23;;
8482;SDS011;4278;42.668;23.312;2022-12-07T03:13:40;41.17;;;20.70;;
8482;SDS011;4278;42.668;23.312;2022-12-07T03:16:08;41.30;;;19.13;;
8482;SDS011;4278;42.668;23.312;2022-12-07T03:18:39;44.50;;;21.47;;
8482;SDS011;4278;42.668;23.312;2022-12-07T03:21:10;49.30;;;21.03;;
8482;SDS011;4278;42.668;23.312;2022-12-07T03:23:38;43.37;;;20.27;;
8482;SDS011;4278;42.668;23.312;2022-12-07T03:26:05;50.27;;;20.50;;
8482;SDS011;4278;42.668;23.312;2022-12-07T03:28:33;40.83;;;20.63;;
8482;SDS011;4278;42.668;23.312;2022-12-07T03:31:01;45.43;;;21.63;;
8482;SDS011;4278;42.668;23.312;2022-12-07T03:33:30;45.37;;;21.43;;
8482;SDS011;4278;42.668;23.312;2022-12-07T03:36:00;44.37;;;21.07;;
8482;SDS011;4278;42.668;23.312;2022-12-07T03:38:29;40.43;;;20.43;;
8482;SDS011;4278;42.668;23.312;2022-12-07T03:40:58;46.87;;;21.47;;
8482;SDS011;4278;42.668;23.312;2022-12-07T03:43:27;42.47;;;20.63;;
8482;SDS011;4278;42.668;23.312;2022-12-07T03:45:56;46.43;;;22.57;;
8482;SDS011;4278;42.668;23.312;2022-12-07T03:48:28;43.07;;;19.23;;
8482;SDS011;4278;42.668;23.312;2022-12-07T03:51:00;42.50;;;21.33;;
8482;SDS011;4278;42.668;23.312;2022-12-07T03:53:30;42.70;;;18.87;;
8482;SDS011;4278;42.668;23.312;2022-12-07T03:55:59;48.60;;;20.57;;
8482;SDS011;4278;42.668;23.312;2022-12-07T03:58:26;44.63;;;20.30;;
8482;SDS011;4278;42.668;23.312;2022-12-07T04:00:53;43.10;;;18.67;;
8482;SDS011;4278;42.668;23.312;2022-12-07T04:03:19;42.93;;;20.93;;
8482;SDS011;4278;42.668;23.312;2022-12-07T04:05:46;41.93;;;20.73;;
8482;SDS011;4278;42.668;23.312;2022-12-07T04:08:14;35.00;;;19.13;;
8482;SDS011;4278;42.668;23.312;2022-12-07T04:10:40;37.80;;;20.57;;
8482;SDS011;4278;42.668;23.312;2022-12-07T04:13:07;37.93;;;19.63;;
8482;SDS011;4278;42.668;23.312;2022-12-07T04:15:34;48.90;;;21.73;;
8482;SDS011;4278;42.668;23.312;2022-12-07T04:18:00;54.03;;;22.93;;
8482;SDS011;4278;42.668;23.312;2022-12-07T04:20:27;39.10;;;19.23;;
8482;SDS011;4278;42.668;23.312;2022-12-07T04:22:53;51.37;;;21.97;;
8482;SDS011;4278;42.668;23.312;2022-12-07T04:25:21;35.57;;;19.70;;
8482;SDS011;4278;42.668;23.312;2022-12-07T04:27:47;46.37;;;21.80;;
8482;SDS011;4278;42.668;23.312;2022-12-07T04:30:14;36.90;;;19.63;;
8482;SDS011;4278;42.668;23.312;2022-12-07T04:32:41;38.63;;;20.73;;
8482;SDS011;4278;42.668;23.312;2022-12-07T04:35:07;40.93;;;19.50;;
8482;SDS011;4278;42.668;23.312;2022-12-07T04:37:34;37.83;;;18.23;;
8482;SDS011;4278;42.668;23.312;2022-12-07T04:40:01;38.67;;;17.97;;
8482;SDS011;4278;42.668;23.312;2022-12-07T04:42:29;36.67;;;18.23;;
8482;SDS011;4278;42.668;23.312;2022-12-07T04:44:55;37.63;;;17.87;;
8482;SDS011;4278;42.668;23.312;2022-12-07T04:47:22;38.87;;;18.03;;
8482;SDS011;4278;42.668;23.312;2022-12-07T04:49:48;36.83;;;17.97;;
8482;SDS011;4278;42.668;23.312;2022-12-07T04:52:15;32.63;;;16.97;;
8482;SDS011;4278;42.668;23.312;2022-12-07T04:54:41;37.90;;;17.83;;
8482;SDS011;4278;42.668;23.312;2022-12-07T04:57:08;35.70;;;18.37;;
8482;SDS011;4278;42.668;23.312;2022-12-07T04:59:36;39.77;;;19.83;;
8482;SDS011;4278;42.668;23.312;2022-12-07T05:02:02;37.23;;;18.00;;
8482;SDS011;4278;42.668;23.312;2022-12-07T05:04:29;36.30;;;17.63;;
8482;SDS011;4278;42.668;23.312;2022-12-07T05:06:55;36.80;;;18.80;;
8482;SDS011;4278;42.668;23.312;2022-12-07T05:09:22;33.20;;;17.70;;
8482;SDS011;4278;42.668;23.312;2022-12-07T05:11:48;39.93;;;19.70;;
8482;SDS011;4278;42.668;23.312;2022-12-07T05:14:16;32.37;;;17.70;;
8482;SDS011;4278;42.668;23.312;2022-12-07T05:16:45;39.20;;;18.93;;
8482;SDS011;4278;42.668;23.312;2022-12-07T05:19:12;39.13;;;18.60;;
8482;SDS011;4278;42.668;23.312;2022-12-07T05:21:39;39.60;;;18.43;;
8482;SDS011;4278;42.668;23.312;2022-12-07T05:24:06;37.93;;;17.93;;
8482;SDS011;4278;42.668;23.312;2022-12-07T05:26:33;37.37;;;19.30;;
8482;SDS011;4278;42.668;23.312;2022-12-07T05:28:59;40.37;;;17.73;;
8482;SDS011;4278;42.668;23.312;2022-12-07T05:31:26;41.50;;;18.87;;
8482;SDS011;4278;42.668;23.312;2022-12-07T05:33:55;39.40;;;18.87;;
8482;SDS011;4278;42.668;23.312;2022-12-07T05:36:22;38.47;;;18.93;;
8482;SDS011;4278;42.668;23.312;2022-12-07T05:38:49;39.53;;;18.67;;
8482;SDS011;4278;42.668;23.312;2022-12-07T05:41:16;36.83;;;18.07;;
8482;SDS011;4278;42.668;23.312;2022-12-07T05:44:00;37.43;;;17.23;;
8482;SDS011;4278;42.668;23.312;2022-12-07T05:46:34;37.67;;;18.37;;
8482;SDS011;4278;42.668;23.312;2022-12-07T05:49:04;45.80;;;19.20;;
8482;SDS011;4278;42.668;23.312;2022-12-07T05:51:31;41.07;;;18.63;;
8482;SDS011;4278;42.668;23.312;2022-12-07T05:53:57;36.00;;;18.87;;
8482;SDS011;4278;42.668;23.312;2022-12-07T05:56:24;38.20;;;17.90;;
8482;SDS011;4278;42.668;23.312;2022-12-07T05:58:51;35.90;;;17.53;;
8482;SDS011;4278;42.668;23.312;2022-12-07T06:01:35;34.37;;;18.40;;
8482;SDS011;4278;42.668;23.312;2022-12-07T06:04:01;42.03;;;20.07;;
8482;SDS011;4278;42.668;23.312;2022-12-07T06:06:29;39.90;;;19.17;;
8482;SDS011;4278;42.668;23.312;2022-12-07T06:08:56;46.47;;;20.37;;
8482;SDS011;4278;42.668;23.312;2022-12-07T06:11:22;41.73;;;20.60;;
8482;SDS011;4278;42.668;23.312;2022-12-07T06:14:06;40.97;;;19.50;;
8482;SDS011;4278;42.668;23.312;2022-12-07T06:16:33;39.90;;;19.27;;
8482;SDS011;4278;42.668;23.312;2022-12-07T06:19:00;42.87;;;20.00;;
8482;SDS011;4278;42.668;23.312;2022-12-07T06:21:26;39.57;;;19.17;;
